sensor_id;sensor_type;location;lat;lon;timestamp;P1;durP1;ratioP1;P2;durP2;ratioP2
9799;SDS011;4939;52.00085300;4.17406100;2023-05-23T00:01:35;33.25;;;8.30;;
9799;SDS011;4939;52.00085300;4.17406100;2023-05-23T00:04:04;24.20;;;7.57;;
9799;SDS011;4939;52.00085300;4.17406100;2023-05-23T00:06:30;32.97;;;8.70;;
9799;SDS011;4939;52.00085300;4.17406100;2023-05-23T00:08:58;23.88;;;7.43;;
9799;SDS011;4939;52.00085300;4.17406100;2023-05-23T00:11:25;34.40;;;8.77;;
9799;SDS011;4939;52.00085300;4.17406100;2023-05-23T00:13:57;25.95;;;8.27;;
9799;SDS011;4939;52.00085300;4.17406100;2023-05-23T00:16:25;28.42;;;8.05;;
9799;SDS011;4939;52.00085300;4.17406100;2023-05-23T00:18:50;27.27;;;7.47;;
9799;SDS011;4939;52.00085300;4.17406100;2023-05-23T00:21:17;21.20;;;6.13;;
9799;SDS011;4939;52.00085300;4.17406100;2023-05-23T00:23:44;29.20;;;6.38;;
9799;SDS011;4939;52.00085300;4.17406100;2023-05-23T00:26:09;26.02;;;6.68;;
9799;SDS011;4939;52.00085300;4.17406100;2023-05-23T00:28:38;23.23;;;6.18;;
9799;SDS011;4939;52.00085300;4.17406100;2023-05-23T00:31:04;33.55;;;6.93;;
9799;SDS011;4939;52.00085300;4.17406100;2023-05-23T00:33:30;25.40;;;7.00;;
9799;SDS011;4939;52.00085300;4.17406100;2023-05-23T00:35:58;25.42;;;6.63;;
9799;SDS011;4939;52.00085300;4.17406100;2023-05-23T00:38:26;23.38;;;6.13;;
9799;SDS011;4939;52.00085300;4.17406100;2023-05-23T00:40:52;25.15;;;5.88;;
9799;SDS011;4939;52.00085300;4.17406100;2023-05-23T00:43:18;36.80;;;6.82;;
9799;SDS011;4939;52.00085300;4.17406100;2023-05-23T00:45:45;22.77;;;6.18;;
9799;SDS011;4939;52.00085300;4.17406100;2023-05-23T00:48:12;22.15;;;5.47;;
9799;SDS011;4939;52.00085300;4.17406100;2023-05-23T00:50:37;16.55;;;5.60;;
9799;SDS011;4939;52.00085300;4.17406100;2023-05-23T00:53:03;20.85;;;5.43;;
9799;SDS011;4939;52.00085300;4.17406100;2023-05-23T00:55:30;27.80;;;6.63;;
9799;SDS011;4939;52.00085300;4.17406100;2023-05-23T00:57:56;22.85;;;5.80;;
9799;SDS011;4939;52.00085300;4.17406100;2023-05-23T01:00:23;23.55;;;5.30;;
9799;SDS011;4939;52.00085300;4.17406100;2023-05-23T01:02:50;20.60;;;5.18;;
9799;SDS011;4939;52.00085300;4.17406100;2023-05-23T01:05:17;21.55;;;5.47;;
9799;SDS011;4939;52.00085300;4.17406100;2023-05-23T01:07:46;21.58;;;5.78;;
9799;SDS011;4939;52.00085300;4.17406100;2023-05-23T01:10:13;20.40;;;5.63;;
9799;SDS011;4939;52.00085300;4.17406100;2023-05-23T01:12:45;20.08;;;5.65;;
9799;SDS011;4939;52.00085300;4.17406100;2023-05-23T01:15:16;24.33;;;5.10;;
9799;SDS011;4939;52.00085300;4.17406100;2023-05-23T01:17:47;23.83;;;5.43;;
9799;SDS011;4939;52.00085300;4.17406100;2023-05-23T01:20:30;20.05;;;4.85;;
9799;SDS011;4939;52.00085300;4.17406100;2023-05-23T01:23:12;19.23;;;5.05;;
9799;SDS011;4939;52.00085300;4.17406100;2023-05-23T01:26:12;18.40;;;5.13;;
9799;SDS011;4939;52.00085300;4.17406100;2023-05-23T01:28:54;15.85;;;4.63;;
9799;SDS011;4939;52.00085300;4.17406100;2023-05-23T01:31:29;16.02;;;4.97;;
9799;SDS011;4939;52.00085300;4.17406100;2023-05-23T01:33:58;14.27;;;4.38;;
9799;SDS011;4939;52.00085300;4.17406100;2023-05-23T01:36:25;19.13;;;4.70;;
9799;SDS011;4939;52.00085300;4.17406100;2023-05-23T01:38:51;22.65;;;4.70;;
9799;SDS011;4939;52.00085300;4.17406100;2023-05-23T01:41:16;18.83;;;4.50;;
9799;SDS011;4939;52.00085300;4.17406100;2023-05-23T01:43:42;20.08;;;4.47;;
9799;SDS011;4939;52.00085300;4.17406100;2023-05-23T01:46:08;24.02;;;4.55;;
9799;SDS011;4939;52.00085300;4.17406100;2023-05-23T01:48:35;17.40;;;4.35;;
9799;SDS011;4939;52.00085300;4.17406100;2023-05-23T01:51:02;17.95;;;4.55;;
9799;SDS011;4939;52.00085300;4.17406100;2023-05-23T01:53:27;22.02;;;4.28;;
9799;SDS011;4939;52.00085300;4.17406100;2023-05-23T01:55:54;19.23;;;4.40;;
9799;SDS011;4939;52.00085300;4.17406100;2023-05-23T01:58:20;18.20;;;4.15;;
9799;SDS011;4939;52.00085300;4.17406100;2023-05-23T02:00:45;21.70;;;4.90;;
9799;SDS011;4939;52.00085300;4.17406100;2023-05-23T02:03:11;21.52;;;4.97;;
9799;SDS011;4939;52.00085300;4.17406100;2023-05-23T02:05:37;21.45;;;4.70;;
9799;SDS011;4939;52.00085300;4.17406100;2023-05-23T02:08:02;14.57;;;4.25;;
9799;SDS011;4939;52.00085300;4.17406100;2023-05-23T02:10:28;23.67;;;3.90;;
9799;SDS011;4939;52.00085300;4.17406100;2023-05-23T02:13:14;25.63;;;4.82;;
9799;SDS011;4939;52.00085300;4.17406100;2023-05-23T02:15:40;24.27;;;4.65;;
9799;SDS011;4939;52.00085300;4.17406100;2023-05-23T02:18:06;29.52;;;4.93;;
9799;SDS011;4939;52.00085300;4.17406100;2023-05-23T02:20:32;19.30;;;4.72;;
9799;SDS011;4939;52.00085300;4.17406100;2023-05-23T02:22:57;18.45;;;4.38;;
9799;SDS011;4939;52.00085300;4.17406100;2023-05-23T02:25:23;18.10;;;4.50;;
9799;SDS011;4939;52.00085300;4.17406100;2023-05-23T02:27:49;20.73;;;4.82;;
9799;SDS011;4939;52.00085300;4.17406100;2023-05-23T02:30:14;21.83;;;4.50;;
9799;SDS011;4939;52.00085300;4.17406100;2023-05-23T02:32:40;23.92;;;4.40;;
9799;SDS011;4939;52.00085300;4.17406100;2023-05-23T02:35:06;16.33;;;4.82;;
9799;SDS011;4939;52.00085300;4.17406100;2023-05-23T02:37:32;18.10;;;4.30;;
9799;SDS011;4939;52.00085300;4.17406100;2023-05-23T02:39:58;21.10;;;4.40;;
9799;SDS011;4939;52.00085300;4.17406100;2023-05-23T02:42:24;33.70;;;4.78;;
9799;SDS011;4939;52.00085300;4.17406100;2023-05-23T02:44:57;18.52;;;4.43;;
9799;SDS011;4939;52.00085300;4.17406100;2023-05-23T02:47:22;22.70;;;5.53;;
9799;SDS011;4939;52.00085300;4.17406100;2023-05-23T02:49:48;26.38;;;5.50;;
9799;SDS011;4939;52.00085300;4.17406100;2023-05-23T02:52:14;15.10;;;3.78;;
9799;SDS011;4939;52.00085300;4.17406100;2023-05-23T02:54:39;15.70;;;4.10;;
9799;SDS011;4939;52.00085300;4.17406100;2023-05-23T02:57:05;21.38;;;4.90;;
9799;SDS011;4939;52.00085300;4.17406100;2023-05-23T02:59:31;19.70;;;4.53;;
9799;SDS011;4939;52.00085300;4.17406100;2023-05-23T03:01:57;16.20;;;3.95;;
9799;SDS011;4939;52.00085300;4.17406100;2023-05-23T03:04:23;14.43;;;4.38;;
9799;SDS011;4939;52.00085300;4.17406100;2023-05-23T03:06:50;16.95;;;5.03;;
9799;SDS011;4939;52.00085300;4.17406100;2023-05-23T03:09:18;11.98;;;4.57;;
9799;SDS011;4939;52.00085300;4.17406100;2023-05-23T03:11:44;16.17;;;3.75;;
9799;SDS011;4939;52.00085300;4.17406100;2023-05-23T03:14:10;15.90;;;4.10;;
9799;SDS011;4939;52.00085300;4.17406100;2023-05-23T03:16:36;18.50;;;4.05;;
9799;SDS011;4939;52.00085300;4.17406100;2023-05-23T03:19:02;13.50;;;4.05;;
9799;SDS011;4939;52.00085300;4.17406100;2023-05-23T03:21:29;22.25;;;4.43;;
9799;SDS011;4939;52.00085300;4.17406100;2023-05-23T03:23:55;17.30;;;4.30;;
9799;SDS011;4939;52.00085300;4.17406100;2023-05-23T03:26:22;14.68;;;4.35;;
9799;SDS011;4939;52.00085300;4.17406100;2023-05-23T03:28:48;16.88;;;3.72;;
9799;SDS011;4939;52.00085300;4.17406100;2023-05-23T03:31:14;15.48;;;4.18;;
9799;SDS011;4939;52.00085300;4.17406100;2023-05-23T03:33:39;18.55;;;4.03;;
9799;SDS011;4939;52.00085300;4.17406100;2023-05-23T03:36:05;13.27;;;4.40;;
9799;SDS011;4939;52.00085300;4.17406100;2023-05-23T03:38:31;16.88;;;4.10;;
9799;SDS011;4939;52.00085300;4.17406100;2023-05-23T03:40:56;18.90;;;4.50;;
9799;SDS011;4939;52.00085300;4.17406100;2023-05-23T03:43:22;17.10;;;4.38;;
9799;SDS011;4939;52.00085300;4.17406100;2023-05-23T03:45:48;19.02;;;4.40;;
9799;SDS011;4939;52.00085300;4.17406100;2023-05-23T03:48:15;16.20;;;4.45;;
9799;SDS011;4939;52.00085300;4.17406100;2023-05-23T03:50:41;18.90;;;4.28;;
9799;SDS011;4939;52.00085300;4.17406100;2023-05-23T03:53:07;12.20;;;4.28;;
9799;SDS011;4939;52.00085300;4.17406100;2023-05-23T03:55:33;16.63;;;5.45;;
9799;SDS011;4939;52.00085300;4.17406100;2023-05-23T03:57:58;19.30;;;5.53;;
9799;SDS011;4939;52.00085300;4.17406100;2023-05-23T04:00:24;14.32;;;4.55;;
9799;SDS011;4939;52.00085300;4.17406100;2023-05-23T04:02:51;20.45;;;5.47;;
9799;SDS011;4939;52.00085300;4.17406100;2023-05-23T04:05:16;17.95;;;5.43;;
9799;SDS011;4939;52.00085300;4.17406100;2023-05-23T04:07:42;21.55;;;6.60;;
9799;SDS011;4939;52.00085300;4.17406100;2023-05-23T04:10:09;16.10;;;5.00;;
9799;SDS011;4939;52.00085300;4.17406100;2023-05-23T04:12:35;17.02;;;5.75;;
9799;SDS011;4939;52.00085300;4.17406100;2023-05-23T04:15:01;16.05;;;5.30;;
9799;SDS011;4939;52.00085300;4.17406100;2023-05-23T04:17:27;12.95;;;4.90;;
9799;SDS011;4939;52.00085300;4.17406100;2023-05-23T04:19:55;18.48;;;5.65;;
9799;SDS011;4939;52.00085300;4.17406100;2023-05-23T04:22:22;18.35;;;6.07;;
9799;SDS011;4939;52.00085300;4.17406100;2023-05-23T04:24:47;18.83;;;5.40;;
9799;SDS011;4939;52.00085300;4.17406100;2023-05-23T04:27:13;21.70;;;5.35;;
9799;SDS011;4939;52.00085300;4.17406100;2023-05-23T04:29:38;20.05;;;5.20;;
9799;SDS011;4939;52.00085300;4.17406100;2023-05-23T04:32:04;16.38;;;4.82;;
9799;SDS011;4939;52.00085300;4.17406100;2023-05-23T04:34:31;15.20;;;4.68;;
9799;SDS011;4939;52.00085300;4.17406100;2023-05-23T04:37:00;20.98;;;5.65;;
9799;SDS011;4939;52.00085300;4.17406100;2023-05-23T04:39:28;20.23;;;6.05;;
9799;SDS011;4939;52.00085300;4.17406100;2023-05-23T04:41:54;21.23;;;5.13;;
9799;SDS011;4939;52.00085300;4.17406100;2023-05-23T04:44:22;20.55;;;5.50;;
9799;SDS011;4939;52.00085300;4.17406100;2023-05-23T04:46:48;14.23;;;4.82;;
9799;SDS011;4939;52.00085300;4.17406100;2023-05-23T04:49:14;16.52;;;5.25;;
9799;SDS011;4939;52.00085300;4.17406100;2023-05-23T04:51:41;18.90;;;5.75;;
9799;SDS011;4939;52.00085300;4.17406100;2023-05-23T04:54:08;12.88;;;4.55;;
9799;SDS011;4939;52.00085300;4.17406100;2023-05-23T04:56:33;15.40;;;5.43;;
9799;SDS011;4939;52.00085300;4.17406100;2023-05-23T04:58:59;22.67;;;5.22;;
9799;SDS011;4939;52.00085300;4.17406100;2023-05-23T05:01:25;16.60;;;5.18;;
9799;SDS011;4939;52.00085300;4.17406100;2023-05-23T05:03:52;19.70;;;5.50;;
9799;SDS011;4939;52.00085300;4.17406100;2023-05-23T05:06:17;20.45;;;4.45;;
9799;SDS011;4939;52.00085300;4.17406100;2023-05-23T05:08:45;18.40;;;5.28;;
9799;SDS011;4939;52.00085300;4.17406100;2023-05-23T05:11:10;21.42;;;5.47;;
9799;SDS011;4939;52.00085300;4.17406100;2023-05-23T05:13:36;12.90;;;4.07;;
9799;SDS011;4939;52.00085300;4.17406100;2023-05-23T05:16:02;13.80;;;4.70;;
9799;SDS011;4939;52.00085300;4.17406100;2023-05-23T05:18:29;17.83;;;5.20;;
9799;SDS011;4939;52.00085300;4.17406100;2023-05-23T05:20:55;12.45;;;4.20;;
9799;SDS011;4939;52.00085300;4.17406100;2023-05-23T05:23:23;19.70;;;4.60;;
9799;SDS011;4939;52.00085300;4.17406100;2023-05-23T05:25:50;22.30;;;4.43;;
9799;SDS011;4939;52.00085300;4.17406100;2023-05-23T05:28:15;16.35;;;4.78;;
9799;SDS011;4939;52.00085300;4.17406100;2023-05-23T05:30:41;15.05;;;4.05;;
9799;SDS011;4939;52.00085300;4.17406100;2023-05-23T05:33:07;17.00;;;4.28;;
9799;SDS011;4939;52.00085300;4.17406100;2023-05-23T05:35:34;16.23;;;3.90;;
9799;SDS011;4939;52.00085300;4.17406100;2023-05-23T05:38:00;12.23;;;3.47;;
9799;SDS011;4939;52.00085300;4.17406100;2023-05-23T05:40:28;16.40;;;3.85;;
9799;SDS011;4939;52.00085300;4.17406100;2023-05-23T05:42:54;13.20;;;3.58;;
9799;SDS011;4939;52.00085300;4.17406100;2023-05-23T05:45:20;14.55;;;3.85;;
9799;SDS011;4939;52.00085300;4.17406100;2023-05-23T05:47:45;10.40;;;3.00;;
9799;SDS011;4939;52.00085300;4.17406100;2023-05-23T05:50:11;11.48;;;3.47;;
9799;SDS011;4939;52.00085300;4.17406100;2023-05-23T05:52:37;11.48;;;3.70;;
9799;SDS011;4939;52.00085300;4.17406100;2023-05-23T05:55:07;10.48;;;3.33;;
9799;SDS011;4939;52.00085300;4.17406100;2023-05-23T05:57:37;16.23;;;2.80;;
9799;SDS011;4939;52.00085300;4.17406100;2023-05-23T06:00:10;11.55;;;2.85;;
9799;SDS011;4939;52.00085300;4.17406100;2023-05-23T06:02:39;7.95;;;2.20;;
9799;SDS011;4939;52.00085300;4.17406100;2023-05-23T06:05:07;8.27;;;2.53;;
9799;SDS011;4939;52.00085300;4.17406100;2023-05-23T06:07:36;12.85;;;2.67;;
9799;SDS011;4939;52.00085300;4.17406100;2023-05-23T06:10:02;7.88;;;1.80;;
9799;SDS011;4939;52.00085300;4.17406100;2023-05-23T06:12:28;10.38;;;1.80;;
9799;SDS011;4939;52.00085300;4.17406100;2023-05-23T06:14:54;10.88;;;1.90;;
9799;SDS011;4939;52.00085300;4.17406100;2023-05-23T06:17:19;14.13;;;2.20;;
9799;SDS011;4939;52.00085300;4.17406100;2023-05-23T06:19:45;10.43;;;2.20;;
9799;SDS011;4939;52.00085300;4.17406100;2023-05-23T06:22:10;12.20;;;2.10;;
9799;SDS011;4939;52.00085300;4.17406100;2023-05-23T06:24:36;10.55;;;2.50;;
9799;SDS011;4939;52.00085300;4.17406100;2023-05-23T06:27:02;8.43;;;1.90;;
9799;SDS011;4939;52.00085300;4.17406100;2023-05-23T06:29:28;10.45;;;1.80;;
9799;SDS011;4939;52.00085300;4.17406100;2023-05-23T06:31:55;8.85;;;2.00;;
9799;SDS011;4939;52.00085300;4.17406100;2023-05-23T06:34:21;9.63;;;2.17;;
9799;SDS011;4939;52.00085300;4.17406100;2023-05-23T06:36:46;8.73;;;1.80;;
9799;SDS011;4939;52.00085300;4.17406100;2023-05-23T06:39:12;10.77;;;2.05;;
9799;SDS011;4939;52.00085300;4.17406100;2023-05-23T06:41:38;9.60;;;2.33;;
9799;SDS011;4939;52.00085300;4.17406100;2023-05-23T06:44:04;13.82;;;2.42;;
9799;SDS011;4939;52.00085300;4.17406100;2023-05-23T06:46:30;11.35;;;2.25;;
9799;SDS011;4939;52.00085300;4.17406100;2023-05-23T06:48:56;17.75;;;2.30;;
9799;SDS011;4939;52.00085300;4.17406100;2023-05-23T06:51:21;15.07;;;2.28;;
9799;SDS011;4939;52.00085300;4.17406100;2023-05-23T06:53:47;13.95;;;2.10;;
9799;SDS011;4939;52.00085300;4.17406100;2023-05-23T06:56:13;15.75;;;2.10;;
9799;SDS011;4939;52.00085300;4.17406100;2023-05-23T06:58:38;17.27;;;2.20;;
9799;SDS011;4939;52.00085300;4.17406100;2023-05-23T07:01:06;11.35;;;1.83;;
9799;SDS011;4939;52.00085300;4.17406100;2023-05-23T07:03:31;20.70;;;3.75;;
9799;SDS011;4939;52.00085300;4.17406100;2023-05-23T07:05:57;15.93;;;2.35;;
9799;SDS011;4939;52.00085300;4.17406100;2023-05-23T07:08:23;16.38;;;1.98;;
9799;SDS011;4939;52.00085300;4.17406100;2023-05-23T07:10:48;10.77;;;1.90;;
9799;SDS011;4939;52.00085300;4.17406100;2023-05-23T07:13:14;13.73;;;2.53;;
9799;SDS011;4939;52.00085300;4.17406100;2023-05-23T07:15:39;16.23;;;2.20;;
9799;SDS011;4939;52.00085300;4.17406100;2023-05-23T07:18:05;12.60;;;2.05;;
9799;SDS011;4939;52.00085300;4.17406100;2023-05-23T07:20:34;15.95;;;1.95;;
9799;SDS011;4939;52.00085300;4.17406100;2023-05-23T07:23:00;15.93;;;1.92;;
9799;SDS011;4939;52.00085300;4.17406100;2023-05-23T07:25:25;28.42;;;10.63;;
9799;SDS011;4939;52.00085300;4.17406100;2023-05-23T07:27:52;17.60;;;3.95;;
9799;SDS011;4939;52.00085300;4.17406100;2023-05-23T07:30:19;12.55;;;2.05;;
9799;SDS011;4939;52.00085300;4.17406100;2023-05-23T07:32:46;13.65;;;3.00;;
9799;SDS011;4939;52.00085300;4.17406100;2023-05-23T07:35:13;12.32;;;2.20;;
9799;SDS011;4939;52.00085300;4.17406100;2023-05-23T07:37:40;12.48;;;2.25;;
9799;SDS011;4939;52.00085300;4.17406100;2023-05-23T07:40:06;14.52;;;2.30;;
9799;SDS011;4939;52.00085300;4.17406100;2023-05-23T07:42:35;19.23;;;2.88;;
9799;SDS011;4939;52.00085300;4.17406100;2023-05-23T07:45:01;15.48;;;2.88;;
9799;SDS011;4939;52.00085300;4.17406100;2023-05-23T07:47:27;26.17;;;3.22;;
9799;SDS011;4939;52.00085300;4.17406100;2023-05-23T07:49:53;13.38;;;2.15;;
9799;SDS011;4939;52.00085300;4.17406100;2023-05-23T07:52:19;11.88;;;2.35;;
9799;SDS011;4939;52.00085300;4.17406100;2023-05-23T07:54:45;18.17;;;2.45;;
9799;SDS011;4939;52.00085300;4.17406100;2023-05-23T07:57:11;14.95;;;2.63;;
9799;SDS011;4939;52.00085300;4.17406100;2023-05-23T07:59:38;14.55;;;2.17;;
9799;SDS011;4939;52.00085300;4.17406100;2023-05-23T08:02:03;15.55;;;2.50;;
9799;SDS011;4939;52.00085300;4.17406100;2023-05-23T08:04:29;26.70;;;3.22;;
9799;SDS011;4939;52.00085300;4.17406100;2023-05-23T08:06:56;14.60;;;2.63;;
9799;SDS011;4939;52.00085300;4.17406100;2023-05-23T08:09:22;14.27;;;2.38;;
9799;SDS011;4939;52.00085300;4.17406100;2023-05-23T08:11:48;16.27;;;3.25;;
9799;SDS011;4939;52.00085300;4.17406100;2023-05-23T08:14:14;16.75;;;2.42;;
9799;SDS011;4939;52.00085300;4.17406100;2023-05-23T08:16:40;12.85;;;2.13;;
9799;SDS011;4939;52.00085300;4.17406100;2023-05-23T08:19:05;18.52;;;2.28;;
9799;SDS011;4939;52.00085300;4.17406100;2023-05-23T08:21:31;15.77;;;2.63;;
9799;SDS011;4939;52.00085300;4.17406100;2023-05-23T08:23:57;16.27;;;2.35;;
9799;SDS011;4939;52.00085300;4.17406100;2023-05-23T08:26:23;14.02;;;2.33;;
9799;SDS011;4939;52.00085300;4.17406100;2023-05-23T08:28:49;14.77;;;2.35;;
9799;SDS011;4939;52.00085300;4.17406100;2023-05-23T08:31:15;17.42;;;2.40;;
9799;SDS011;4939;52.00085300;4.17406100;2023-05-23T08:33:41;18.60;;;3.78;;
9799;SDS011;4939;52.00085300;4.17406100;2023-05-23T08:36:08;15.52;;;2.75;;
9799;SDS011;4939;52.00085300;4.17406100;2023-05-23T08:38:34;16.27;;;2.95;;
9799;SDS011;4939;52.00085300;4.17406100;2023-05-23T08:41:00;12.57;;;3.03;;
9799;SDS011;4939;52.00085300;4.17406100;2023-05-23T08:43:26;12.88;;;2.42;;
9799;SDS011;4939;52.00085300;4.17406100;2023-05-23T08:45:53;13.57;;;2.45;;
9799;SDS011;4939;52.00085300;4.17406100;2023-05-23T08:48:19;16.48;;;3.13;;
9799;SDS011;4939;52.00085300;4.17406100;2023-05-23T08:50:46;16.63;;;2.35;;
9799;SDS011;4939;52.00085300;4.17406100;2023-05-23T08:53:15;14.10;;;2.25;;
9799;SDS011;4939;52.00085300;4.17406100;2023-05-23T08:55:47;11.82;;;2.53;;
9799;SDS011;4939;52.00085300;4.17406100;2023-05-23T08:58:16;13.50;;;2.38;;
9799;SDS011;4939;52.00085300;4.17406100;2023-05-23T09:00:44;9.77;;;2.05;;
9799;SDS011;4939;52.00085300;4.17406100;2023-05-23T09:03:11;16.23;;;2.47;;
9799;SDS011;4939;52.00085300;4.17406100;2023-05-23T09:05:38;15.20;;;2.33;;
9799;SDS011;4939;52.00085300;4.17406100;2023-05-23T09:08:04;13.48;;;2.20;;
9799;SDS011;4939;52.00085300;4.17406100;2023-05-23T09:10:29;12.95;;;2.25;;
9799;SDS011;4939;52.00085300;4.17406100;2023-05-23T09:12:55;15.02;;;2.83;;
9799;SDS011;4939;52.00085300;4.17406100;2023-05-23T09:15:22;11.25;;;1.83;;
9799;SDS011;4939;52.00085300;4.17406100;2023-05-23T09:17:48;16.13;;;2.80;;
9799;SDS011;4939;52.00085300;4.17406100;2023-05-23T09:20:15;17.85;;;2.30;;
9799;SDS011;4939;52.00085300;4.17406100;2023-05-23T09:22:45;13.38;;;2.20;;
9799;SDS011;4939;52.00085300;4.17406100;2023-05-23T09:25:12;11.80;;;2.08;;
9799;SDS011;4939;52.00085300;4.17406100;2023-05-23T09:27:38;13.93;;;2.35;;
9799;SDS011;4939;52.00085300;4.17406100;2023-05-23T09:30:05;13.13;;;1.98;;
9799;SDS011;4939;52.00085300;4.17406100;2023-05-23T09:32:31;13.00;;;2.38;;
9799;SDS011;4939;52.00085300;4.17406100;2023-05-23T09:34:58;15.98;;;2.78;;
9799;SDS011;4939;52.00085300;4.17406100;2023-05-23T09:37:28;10.73;;;2.33;;
9799;SDS011;4939;52.00085300;4.17406100;2023-05-23T09:39:57;12.63;;;2.33;;
9799;SDS011;4939;52.00085300;4.17406100;2023-05-23T09:42:30;10.90;;;2.00;;
9799;SDS011;4939;52.00085300;4.17406100;2023-05-23T09:45:00;9.85;;;1.83;;
9799;SDS011;4939;52.00085300;4.17406100;2023-05-23T09:47:26;12.65;;;2.13;;
9799;SDS011;4939;52.00085300;4.17406100;2023-05-23T09:49:52;13.52;;;2.50;;
9799;SDS011;4939;52.00085300;4.17406100;2023-05-23T09:52:18;13.95;;;2.17;;
9799;SDS011;4939;52.00085300;4.17406100;2023-05-23T09:54:47;10.27;;;1.90;;
9799;SDS011;4939;52.00085300;4.17406100;2023-05-23T09:57:13;13.40;;;2.25;;
9799;SDS011;4939;52.00085300;4.17406100;2023-05-23T09:59:41;14.30;;;3.13;;
9799;SDS011;4939;52.00085300;4.17406100;2023-05-23T10:02:10;12.73;;;1.98;;
9799;SDS011;4939;52.00085300;4.17406100;2023-05-23T10:04:37;12.57;;;2.72;;
9799;SDS011;4939;52.00085300;4.17406100;2023-05-23T10:07:13;14.55;;;2.47;;
9799;SDS011;4939;52.00085300;4.17406100;2023-05-23T10:09:49;14.50;;;2.00;;
9799;SDS011;4939;52.00085300;4.17406100;2023-05-23T10:14:56;15.50;;;2.43;;
9799;SDS011;4939;52.00085300;4.17406100;2023-05-23T10:20:29;14.07;;;1.75;;
9799;SDS011;4939;52.00085300;4.17406100;2023-05-23T10:22:57;15.95;;;2.10;;
9799;SDS011;4939;52.00085300;4.17406100;2023-05-23T10:25:24;11.55;;;2.30;;
9799;SDS011;4939;52.00085300;4.17406100;2023-05-23T10:27:52;13.52;;;2.10;;
9799;SDS011;4939;52.00085300;4.17406100;2023-05-23T10:30:22;11.63;;;2.28;;
9799;SDS011;4939;52.00085300;4.17406100;2023-05-23T10:32:51;13.70;;;2.50;;
9799;SDS011;4939;52.00085300;4.17406100;2023-05-23T10:35:21;15.23;;;2.35;;
9799;SDS011;4939;52.00085300;4.17406100;2023-05-23T10:46:30;11.32;;;1.90;;
9799;SDS011;4939;52.00085300;4.17406100;2023-05-23T10:49:43;10.45;;;2.03;;
9799;SDS011;4939;52.00085300;4.17406100;2023-05-23T10:52:11;11.52;;;1.90;;
9799;SDS011;4939;52.00085300;4.17406100;2023-05-23T10:54:45;15.43;;;2.45;;
9799;SDS011;4939;52.00085300;4.17406100;2023-05-23T10:57:19;13.95;;;2.50;;
9799;SDS011;4939;52.00085300;4.17406100;2023-05-23T10:59:48;19.63;;;2.70;;
9799;SDS011;4939;52.00085300;4.17406100;2023-05-23T11:02:15;10.60;;;2.08;;
9799;SDS011;4939;52.00085300;4.17406100;2023-05-23T11:04:43;12.27;;;2.20;;
9799;SDS011;4939;52.00085300;4.17406100;2023-05-23T11:07:51;13.25;;;2.28;;
9799;SDS011;4939;52.00085300;4.17406100;2023-05-23T11:10:17;11.68;;;2.35;;
9799;SDS011;4939;52.00085300;4.17406100;2023-05-23T11:12:43;13.25;;;2.42;;
9799;SDS011;4939;52.00085300;4.17406100;2023-05-23T11:17:47;11.77;;;1.97;;
9799;SDS011;4939;52.00085300;4.17406100;2023-05-23T11:20:18;14.88;;;2.15;;
9799;SDS011;4939;52.00085300;4.17406100;2023-05-23T11:23:00;10.32;;;2.40;;
9799;SDS011;4939;52.00085300;4.17406100;2023-05-23T11:28:07;13.85;;;2.10;;
9799;SDS011;4939;52.00085300;4.17406100;2023-05-23T11:30:34;9.75;;;2.17;;
9799;SDS011;4939;52.00085300;4.17406100;2023-05-23T11:33:02;13.38;;;1.60;;
9799;SDS011;4939;52.00085300;4.17406100;2023-05-23T11:35:37;10.80;;;1.90;;
9799;SDS011;4939;52.00085300;4.17406100;2023-05-23T11:38:07;10.90;;;1.77;;
9799;SDS011;4939;52.00085300;4.17406100;2023-05-23T11:40:34;12.48;;;1.98;;
9799;SDS011;4939;52.00085300;4.17406100;2023-05-23T11:43:03;11.35;;;2.33;;
9799;SDS011;4939;52.00085300;4.17406100;2023-05-23T11:45:31;14.45;;;2.25;;
9799;SDS011;4939;52.00085300;4.17406100;2023-05-23T11:47:57;9.75;;;1.90;;
9799;SDS011;4939;52.00085300;4.17406100;2023-05-23T11:50:24;15.23;;;2.30;;
9799;SDS011;4939;52.00085300;4.17406100;2023-05-23T11:52:50;8.57;;;2.33;;
9799;SDS011;4939;52.00085300;4.17406100;2023-05-23T11:55:18;10.35;;;2.08;;
9799;SDS011;4939;52.00085300;4.17406100;2023-05-23T11:57:45;13.68;;;2.28;;
9799;SDS011;4939;52.00085300;4.17406100;2023-05-23T12:00:11;11.45;;;2.13;;
9799;SDS011;4939;52.00085300;4.17406100;2023-05-23T12:02:41;12.35;;;1.70;;
9799;SDS011;4939;52.00085300;4.17406100;2023-05-23T12:05:11;13.50;;;1.80;;
9799;SDS011;4939;52.00085300;4.17406100;2023-05-23T12:07:41;12.23;;;2.10;;
9799;SDS011;4939;52.00085300;4.17406100;2023-05-23T12:10:11;13.25;;;1.98;;
9799;SDS011;4939;52.00085300;4.17406100;2023-05-23T12:12:39;10.68;;;1.90;;
9799;SDS011;4939;52.00085300;4.17406100;2023-05-23T12:15:06;10.55;;;1.95;;
9799;SDS011;4939;52.00085300;4.17406100;2023-05-23T12:17:45;12.98;;;2.15;;
9799;SDS011;4939;52.00085300;4.17406100;2023-05-23T12:20:11;16.52;;;2.10;;
9799;SDS011;4939;52.00085300;4.17406100;2023-05-23T12:22:37;19.65;;;2.80;;
9799;SDS011;4939;52.00085300;4.17406100;2023-05-23T12:25:02;11.60;;;1.60;;
9799;SDS011;4939;52.00085300;4.17406100;2023-05-23T12:27:33;12.95;;;1.80;;
9799;SDS011;4939;52.00085300;4.17406100;2023-05-23T12:32:34;10.20;;;1.85;;
9799;SDS011;4939;52.00085300;4.17406100;2023-05-23T12:35:10;12.57;;;2.00;;
9799;SDS011;4939;52.00085300;4.17406100;2023-05-23T12:37:38;9.90;;;1.73;;
9799;SDS011;4939;52.00085300;4.17406100;2023-05-23T12:40:14;13.43;;;2.00;;
9799;SDS011;4939;52.00085300;4.17406100;2023-05-23T12:42:54;13.90;;;1.77;;
9799;SDS011;4939;52.00085300;4.17406100;2023-05-23T12:45:29;14.02;;;1.75;;
9799;SDS011;4939;52.00085300;4.17406100;2023-05-23T12:47:57;10.65;;;1.63;;
9799;SDS011;4939;52.00085300;4.17406100;2023-05-23T12:50:23;11.80;;;1.85;;
9799;SDS011;4939;52.00085300;4.17406100;2023-05-23T12:52:49;8.90;;;1.55;;
9799;SDS011;4939;52.00085300;4.17406100;2023-05-23T12:55:16;10.25;;;1.92;;
9799;SDS011;4939;52.00085300;4.17406100;2023-05-23T12:57:42;8.52;;;1.42;;
9799;SDS011;4939;52.00085300;4.17406100;2023-05-23T13:00:08;7.28;;;1.40;;
9799;SDS011;4939;52.00085300;4.17406100;2023-05-23T13:02:34;6.07;;;1.50;;
9799;SDS011;4939;52.00085300;4.17406100;2023-05-23T13:05:00;7.18;;;1.55;;
9799;SDS011;4939;52.00085300;4.17406100;2023-05-23T13:07:25;9.70;;;2.15;;
9799;SDS011;4939;52.00085300;4.17406100;2023-05-23T13:09:51;10.27;;;1.50;;
9799;SDS011;4939;52.00085300;4.17406100;2023-05-23T13:12:17;13.75;;;1.92;;
9799;SDS011;4939;52.00085300;4.17406100;2023-05-23T13:14:42;11.27;;;1.67;;
9799;SDS011;4939;52.00085300;4.17406100;2023-05-23T13:17:08;7.32;;;1.80;;
9799;SDS011;4939;52.00085300;4.17406100;2023-05-23T13:19:34;7.18;;;1.70;;
9799;SDS011;4939;52.00085300;4.17406100;2023-05-23T13:21:59;12.80;;;1.88;;
9799;SDS011;4939;52.00085300;4.17406100;2023-05-23T13:24:26;12.27;;;1.25;;
9799;SDS011;4939;52.00085300;4.17406100;2023-05-23T13:26:51;15.75;;;1.80;;